Terminal Aerodrome Forecast
Issued by NWS Jackson, MS

Home | Current Version | Previous Version | Text Only | Print | Product List | Glossary On
Versions: 1 2 3 4 5 6 7 8 9 10 11 12 13 14 15 16 17
965
FTUS44 KJAN 190834 AAC
TAFHBG
TAF AMD
KHBG 190834Z 1909/2006 16005KT P6SM OVC010
     FM191200 16003KT 2SM BR OVC005
     FM191500 16014G21KT P6SM BKN025 BKN250
     FM200000 17008KT P6SM BKN030 BKN250=

USA.gov is the U.S. government's official web portal to all federal, state and local government web resources and services.